createdAt,value
2023-04-12T00:01:40.643Z,100.00
2023-04-12T00:04:12.262Z,100.00
2023-04-12T00:06:44.201Z,100.00
2023-04-12T00:09:15.680Z,100.00
2023-04-12T00:11:47.484Z,100.00
2023-04-12T00:14:18.968Z,100.00
2023-04-12T00:16:50.776Z,100.00
2023-04-12T00:19:22.248Z,100.00
2023-04-12T00:21:54.143Z,100.00
2023-04-12T00:24:25.651Z,100.00
2023-04-12T00:26:57.286Z,100.00
2023-04-12T00:29:28.756Z,100.00
2023-04-12T00:32:00.586Z,100.00
2023-04-12T00:34:32.060Z,100.00
2023-04-12T00:37:03.899Z,100.00
2023-04-12T00:39:35.351Z,100.00
2023-04-12T00:42:07.001Z,100.00
2023-04-12T00:44:38.616Z,100.00
2023-04-12T00:47:10.272Z,100.00
2023-04-12T00:49:41.756Z,100.00
2023-04-12T00:52:13.611Z,100.00
2023-04-12T00:54:45.076Z,100.00
2023-04-12T00:57:16.869Z,100.00
2023-04-12T00:59:48.373Z,100.00
2023-04-12T01:02:20.425Z,100.00
2023-04-12T01:04:51.927Z,100.00
2023-04-12T01:07:23.758Z,100.00
2023-04-12T01:09:55.230Z,100.00
2023-04-12T01:12:27.056Z,100.00
2023-04-12T01:14:58.544Z,100.00
2023-04-12T01:17:30.162Z,100.00
2023-04-12T01:20:01.732Z,100.00
2023-04-12T01:22:33.233Z,100.00
2023-04-12T01:25:04.723Z,100.00
2023-04-12T01:27:36.206Z,100.00
2023-04-12T01:30:07.676Z,100.00
2023-04-12T01:32:39.520Z,100.00
2023-04-12T01:35:11.014Z,100.00
2023-04-12T01:37:42.839Z,100.00
2023-04-12T01:40:14.296Z,100.00
2023-04-12T01:42:46.060Z,100.00
2023-04-12T01:45:17.555Z,100.00
2023-04-12T01:47:49.356Z,100.00
2023-04-12T01:50:20.943Z,100.00
2023-04-12T01:52:52.777Z,100.00
2023-04-12T01:55:24.268Z,100.00
2023-04-12T01:57:56.037Z,100.00
2023-04-12T02:00:27.498Z,100.00
2023-04-12T02:02:59.494Z,100.00
2023-04-12T02:05:31.159Z,100.00
2023-04-12T02:08:02.651Z,100.00
2023-04-12T02:10:34.143Z,100.00
2023-04-12T02:13:05.969Z,100.00
2023-04-12T02:15:37.459Z,100.00
2023-04-12T02:18:09.251Z,100.00
2023-04-12T02:20:40.817Z,100.00
2023-04-12T02:23:12.602Z,100.00
2023-04-12T02:25:44.065Z,100.00
2023-04-12T02:28:15.920Z,100.00
2023-04-12T02:30:47.391Z,100.00
2023-04-12T02:33:19.250Z,100.00
2023-04-12T02:35:50.793Z,100.00
2023-04-12T02:38:22.465Z,100.00
2023-04-12T02:40:53.922Z,100.00
2023-04-12T02:43:25.876Z,100.00
2023-04-12T02:45:57.365Z,100.00
2023-04-12T02:48:28.865Z,100.00
2023-04-12T02:51:00.325Z,100.00
2023-04-12T02:53:31.809Z,100.00
2023-04-12T02:56:04.858Z,100.00
2023-04-12T02:58:37.914Z,100.00
2023-04-12T03:01:09.401Z,100.00
2023-04-12T03:03:41.002Z,100.00
2023-04-12T03:06:12.690Z,100.00
2023-04-12T03:08:44.462Z,100.00
2023-04-12T03:11:15.961Z,100.00
2023-04-12T03:13:47.450Z,100.00
2023-04-12T03:16:19.320Z,100.00
2023-04-12T03:18:50.809Z,100.00
2023-04-12T03:21:22.648Z,100.00
2023-04-12T03:23:54.156Z,100.00
2023-04-12T03:26:26.034Z,100.00
2023-04-12T03:28:57.506Z,100.00
2023-04-12T03:31:29.035Z,100.00
2023-04-12T03:34:00.523Z,100.00
2023-04-12T03:36:32.001Z,100.00
2023-04-12T03:39:03.527Z,100.00
2023-04-12T03:41:35.087Z,100.00
2023-04-12T03:44:06.557Z,100.00
2023-04-12T03:46:38.560Z,100.00
2023-04-12T03:49:10.031Z,100.00
2023-04-12T03:51:42.007Z,100.00
2023-04-12T03:54:14.468Z,100.00
2023-04-12T03:56:46.489Z,100.00
2023-04-12T03:59:18.004Z,100.00
2023-04-12T04:01:49.831Z,100.00
2023-04-12T04:04:21.492Z,100.00
2023-04-12T04:06:53.424Z,100.00
2023-04-12T04:09:24.871Z,100.00
2023-04-12T04:11:56.355Z,100.00
2023-04-12T04:14:27.814Z,100.00
2023-04-12T04:16:59.645Z,100.00
2023-04-12T04:19:31.121Z,100.00
2023-04-12T04:22:02.969Z,100.00
2023-04-12T04:24:34.455Z,100.00
2023-04-12T04:27:06.236Z,100.00
2023-04-12T04:29:37.688Z,100.00
2023-04-12T04:32:09.498Z,100.00
2023-04-12T04:34:40.961Z,100.00
2023-04-12T04:37:12.740Z,100.00
2023-04-12T04:39:44.200Z,100.00
2023-04-12T04:42:15.847Z,100.00
2023-04-12T04:44:47.488Z,100.00
2023-04-12T04:47:19.366Z,100.00
2023-04-12T04:49:50.830Z,100.00
2023-04-12T04:52:22.644Z,100.00
2023-04-12T04:54:54.088Z,100.00
2023-04-12T04:57:25.858Z,100.00
2023-04-12T04:59:57.305Z,100.00
2023-04-12T05:02:28.836Z,100.00
2023-04-12T05:05:00.370Z,100.00
2023-04-12T05:07:32.010Z,100.00
2023-04-12T05:10:03.468Z,100.00
2023-04-12T05:12:34.939Z,100.00
2023-04-12T05:15:11.621Z,100.00
2023-04-12T05:17:43.871Z,100.00
2023-04-12T05:20:15.345Z,100.00
2023-04-12T05:22:46.872Z,100.00
2023-04-12T05:25:18.322Z,100.00
2023-04-12T05:27:51.905Z,100.00
2023-04-12T05:30:23.700Z,100.00
2023-04-12T05:32:55.281Z,100.00
2023-04-12T05:35:26.821Z,100.00
2023-04-12T05:37:58.608Z,100.00
2023-04-12T05:40:30.103Z,100.00
2023-04-12T05:43:01.858Z,100.00
2023-04-12T05:45:33.350Z,100.00
2023-04-12T05:48:04.891Z,100.00
2023-04-12T05:50:36.431Z,100.00
2023-04-12T05:53:08.250Z,100.00
2023-04-12T05:55:39.713Z,100.00
2023-04-12T05:58:11.528Z,100.00
2023-04-12T06:00:43.024Z,100.00
2023-04-12T06:03:15.088Z,100.00
2023-04-12T06:05:46.685Z,100.00
2023-04-12T06:08:18.688Z,100.00
2023-04-12T06:10:50.139Z,100.00
2023-04-12T06:13:21.943Z,100.00
2023-04-12T06:15:53.453Z,99.44
2023-04-12T06:18:25.222Z,98.85
2023-04-12T06:20:56.670Z,96.83
2023-04-12T06:23:29.293Z,96.93
2023-04-12T06:26:00.729Z,96.14
2023-04-12T06:28:32.190Z,94.71
2023-04-12T06:31:03.665Z,93.70
2023-04-12T06:33:35.154Z,92.67
2023-04-12T06:36:06.649Z,91.31
2023-04-12T06:38:38.421Z,91.62
2023-04-12T06:41:10.036Z,89.51
2023-04-12T06:43:41.730Z,89.07
2023-04-12T06:46:13.178Z,87.97
2023-04-12T06:48:45.121Z,86.31
2023-04-12T06:51:16.560Z,85.48
2023-04-12T06:53:48.340Z,85.92
2023-04-12T06:56:19.816Z,83.71
2023-04-12T06:58:51.756Z,83.18
2023-04-12T07:01:23.296Z,81.71
2023-04-12T07:03:55.222Z,79.97
2023-04-12T07:06:26.812Z,80.53
2023-04-12T07:08:58.974Z,77.87
2023-04-12T07:11:30.641Z,80.17
2023-04-12T07:14:02.439Z,80.41
2023-04-12T07:16:33.950Z,79.23
2023-04-12T07:19:05.764Z,76.38
2023-04-12T07:21:37.225Z,75.29
2023-04-12T07:24:09.037Z,74.71
2023-04-12T07:26:40.974Z,73.91
2023-04-12T07:29:12.439Z,72.63
2023-04-12T07:31:44.272Z,72.04
2023-04-12T07:34:15.843Z,72.24
2023-04-12T07:36:47.401Z,72.33
2023-04-12T07:39:18.900Z,70.49
2023-04-12T07:41:50.562Z,70.70
2023-04-12T07:44:22.019Z,67.62
2023-04-12T07:46:53.876Z,68.25
2023-04-12T07:49:25.350Z,67.87
2023-04-12T07:51:57.122Z,68.24
2023-04-12T07:54:28.606Z,67.77
2023-04-12T07:57:00.397Z,66.73
2023-04-12T07:59:31.859Z,66.43
2023-04-12T08:02:03.982Z,65.98
2023-04-12T08:04:35.629Z,66.83
2023-04-12T08:07:07.377Z,63.39
2023-04-12T08:09:38.817Z,63.92
2023-04-12T08:12:10.264Z,65.02
2023-04-12T08:14:41.718Z,61.56
2023-04-12T08:17:13.225Z,60.55
2023-04-12T08:19:44.684Z,59.85
2023-04-12T08:22:16.493Z,58.06
2023-04-12T08:24:47.960Z,58.84
2023-04-12T08:27:19.425Z,57.87
2023-04-12T08:29:50.894Z,59.25
2023-04-12T08:32:22.391Z,56.43
2023-04-12T08:34:53.907Z,56.42
2023-04-12T08:37:25.756Z,55.86
2023-04-12T08:39:57.234Z,56.79
2023-04-12T08:42:29.746Z,53.33
2023-04-12T08:45:01.209Z,52.92
2023-04-12T08:47:32.702Z,50.91
2023-04-12T08:50:04.209Z,50.86
2023-04-12T08:52:35.703Z,52.00
2023-04-12T08:55:07.161Z,49.23
2023-04-12T08:57:38.945Z,49.68
2023-04-12T09:00:10.435Z,50.98
2023-04-12T09:02:42.179Z,50.36
2023-04-12T09:05:13.849Z,51.07
2023-04-12T09:07:45.579Z,48.35
2023-04-12T09:10:17.200Z,48.79
2023-04-12T09:12:50.288Z,47.89
2023-04-12T09:15:23.173Z,49.15
2023-04-12T09:17:54.880Z,47.75
2023-04-12T09:20:26.360Z,46.48
2023-04-12T09:22:58.162Z,45.20
2023-04-12T09:25:29.677Z,45.05
2023-04-12T09:28:01.488Z,44.29
2023-04-12T09:30:32.934Z,41.43
2023-04-12T09:33:04.775Z,41.49
2023-04-12T09:35:36.372Z,42.35
2023-04-12T09:38:09.058Z,41.61
2023-04-12T09:40:40.761Z,41.78
2023-04-12T09:43:12.233Z,39.45
2023-04-12T09:45:44.063Z,40.44
2023-04-12T09:48:15.618Z,39.92
2023-04-12T09:50:47.529Z,38.43
2023-04-12T09:53:19.031Z,37.72
2023-04-12T09:55:50.825Z,39.69
2023-04-12T09:58:22.285Z,38.26
2023-04-12T10:00:53.748Z,37.32
2023-04-12T10:03:25.319Z,37.02
2023-04-12T10:05:57.236Z,37.72
2023-04-12T10:08:28.713Z,36.09
2023-04-12T10:11:00.626Z,37.21
2023-04-12T10:13:32.097Z,37.38
2023-04-12T10:16:03.610Z,37.66
2023-04-12T10:18:35.074Z,37.10
2023-04-12T10:21:06.752Z,36.91
2023-04-12T10:23:38.187Z,36.58
2023-04-12T10:26:09.820Z,37.66
2023-04-12T10:28:41.282Z,36.77
2023-04-12T10:31:13.144Z,35.72
2023-04-12T10:33:44.642Z,36.41
2023-04-12T10:36:16.849Z,38.31
2023-04-12T10:38:48.349Z,36.69
2023-04-12T10:41:20.185Z,36.68
2023-04-12T10:43:51.648Z,36.90
2023-04-12T10:46:23.173Z,36.42
2023-04-12T10:48:54.766Z,37.57
2023-04-12T10:51:26.741Z,35.94
2023-04-12T10:53:58.265Z,36.13
2023-04-12T10:56:32.049Z,35.08
2023-04-12T10:59:04.489Z,36.36
2023-04-12T11:01:38.636Z,35.91
2023-04-12T11:04:11.074Z,35.26
2023-04-12T11:06:43.055Z,35.34
2023-04-12T11:09:14.896Z,35.13
2023-04-12T11:11:46.352Z,35.59
2023-04-12T11:14:18.281Z,35.24
2023-04-12T11:16:49.808Z,35.59
2023-04-12T11:19:21.531Z,34.49
2023-04-12T11:21:53.032Z,35.06
2023-04-12T11:24:24.515Z,34.04
2023-04-12T11:26:55.969Z,34.74
2023-04-12T11:29:27.727Z,35.11
2023-04-12T11:31:59.189Z,34.26
2023-04-12T11:34:30.679Z,34.57
2023-04-12T11:37:02.301Z,34.80
2023-04-12T11:39:35.475Z,35.43
2023-04-12T11:42:09.899Z,34.48
2023-04-12T11:44:56.012Z,33.19
2023-04-12T11:47:29.548Z,33.57
2023-04-12T11:50:01.441Z,33.12
2023-04-12T11:52:32.917Z,33.05
2023-04-12T11:55:04.716Z,32.58
2023-04-12T11:57:36.230Z,32.61
2023-04-12T12:00:08.178Z,32.28
2023-04-12T12:02:49.034Z,33.39
2023-04-12T12:05:28.143Z,32.34
2023-04-12T12:08:01.252Z,33.72
2023-04-12T12:13:10.123Z,34.96
2023-04-12T12:15:41.682Z,34.38
2023-04-12T12:18:13.524Z,33.43
2023-04-12T12:20:44.997Z,33.53
2023-04-12T12:23:16.459Z,34.16
2023-04-12T12:25:47.921Z,33.72
2023-04-12T12:28:19.657Z,33.59
2023-04-12T12:30:51.217Z,34.17
2023-04-12T12:33:29.090Z,33.74
2023-04-12T12:36:10.525Z,34.33
2023-04-12T12:38:42.399Z,34.82
2023-04-12T12:41:13.860Z,34.94
2023-04-12T12:43:45.800Z,34.95
2023-04-12T12:46:17.375Z,34.88
2023-04-12T12:48:49.140Z,35.39
2023-04-12T12:51:20.591Z,35.90
2023-04-12T12:53:52.436Z,35.74
2023-04-12T12:56:23.913Z,35.40
2023-04-12T12:58:56.027Z,35.80
2023-04-12T13:01:27.741Z,35.25
2023-04-12T13:03:59.817Z,34.82
2023-04-12T13:06:31.334Z,33.10
2023-04-12T13:09:02.780Z,33.63
2023-04-12T13:11:34.236Z,34.68
2023-04-12T13:14:06.039Z,33.80
2023-04-12T13:16:37.539Z,34.49
2023-04-12T13:19:09.340Z,33.72
2023-04-12T13:21:40.825Z,33.49
2023-04-12T13:24:12.460Z,34.27
2023-04-12T13:26:43.965Z,34.06
2023-04-12T13:29:15.435Z,34.13
2023-04-12T13:31:46.925Z,34.69
2023-04-12T13:34:18.825Z,35.23
2023-04-12T13:36:50.334Z,35.21
2023-04-12T13:39:22.126Z,35.76
2023-04-12T13:41:53.606Z,35.64
2023-04-12T13:44:25.083Z,36.13
2023-04-12T13:46:56.513Z,36.35
2023-04-12T13:49:28.564Z,35.85
2023-04-12T13:52:00.025Z,36.33
2023-04-12T13:54:31.597Z,36.56
2023-04-12T13:57:03.035Z,37.43
2023-04-12T13:59:34.494Z,37.16
2023-04-12T14:02:06.004Z,38.16
2023-04-12T14:04:37.830Z,37.97
2023-04-12T14:07:09.335Z,38.38
2023-04-12T14:09:41.321Z,38.33
2023-04-12T14:12:12.785Z,38.96
2023-04-12T14:14:44.482Z,39.09
2023-04-12T14:17:15.959Z,39.08
2023-04-12T14:19:47.827Z,39.63
2023-04-12T14:22:19.290Z,39.50
2023-04-12T14:24:51.022Z,41.04
2023-04-12T14:27:22.564Z,40.90
2023-04-12T14:29:54.305Z,41.47
2023-04-12T14:32:25.830Z,42.01
2023-04-12T14:34:57.353Z,42.14
2023-04-12T14:37:28.802Z,42.73
2023-04-12T14:40:00.280Z,43.67
2023-04-12T14:42:31.768Z,43.39
2023-04-12T14:45:03.269Z,43.98
2023-04-12T14:47:34.792Z,44.48
2023-04-12T14:50:06.247Z,44.27
2023-04-12T14:52:37.904Z,43.94
2023-04-12T14:55:09.410Z,44.37
2023-04-12T14:57:41.021Z,45.26
2023-04-12T15:00:12.466Z,45.50
2023-04-12T15:02:44.073Z,47.81
2023-04-12T15:05:15.922Z,51.08
2023-04-12T15:07:48.641Z,51.38
2023-04-12T15:10:20.792Z,53.72
2023-04-12T15:12:52.536Z,55.17
2023-04-12T15:15:23.971Z,57.62
2023-04-12T15:17:55.692Z,63.92
2023-04-12T15:20:27.177Z,68.89
2023-04-12T15:22:59.019Z,72.81
2023-04-12T15:25:30.475Z,74.86
2023-04-12T15:28:01.927Z,76.09
2023-04-12T15:30:33.366Z,80.15
2023-04-12T15:33:05.003Z,80.37
2023-04-12T15:35:36.498Z,81.83
2023-04-12T15:38:08.071Z,80.55
2023-04-12T15:40:39.512Z,81.58
2023-04-12T15:43:11.189Z,81.70
2023-04-12T15:45:42.756Z,85.36
2023-04-12T15:48:14.732Z,83.69
2023-04-12T15:50:46.203Z,84.46
2023-04-12T15:53:17.908Z,85.26
2023-04-12T15:55:49.356Z,87.69
2023-04-12T15:58:20.803Z,87.98
2023-04-12T16:00:52.245Z,87.93
2023-04-12T16:03:24.121Z,90.55
2023-04-12T16:05:55.668Z,92.15
2023-04-12T16:08:27.370Z,91.19
2023-04-12T16:10:58.854Z,86.73
2023-04-12T16:13:30.315Z,89.22
2023-04-12T16:16:01.887Z,87.92
2023-04-12T16:18:33.368Z,88.22
2023-04-12T16:21:04.807Z,86.87
2023-04-12T16:23:36.280Z,88.54
2023-04-12T16:26:07.733Z,91.28
2023-04-12T16:28:39.545Z,95.16
2023-04-12T16:31:11.091Z,93.60
2023-04-12T16:33:45.142Z,95.51
2023-04-12T16:36:16.813Z,96.53
2023-04-12T16:38:48.713Z,97.04
2023-04-12T16:41:20.464Z,96.80
2023-04-12T16:43:51.923Z,98.50
2023-04-12T16:46:23.625Z,97.74
2023-04-12T16:48:55.274Z,100.00
2023-04-12T16:51:26.827Z,100.00
2023-04-12T16:53:58.567Z,100.00
2023-04-12T16:56:30.295Z,100.00
2023-04-12T16:59:01.765Z,100.00
2023-04-12T17:01:33.244Z,100.00
2023-04-12T17:04:04.928Z,100.00
2023-04-12T17:06:36.933Z,100.00
2023-04-12T17:09:09.452Z,100.00
2023-04-12T17:11:40.931Z,100.00
2023-04-12T17:14:12.394Z,100.00
2023-04-12T17:16:44.087Z,100.00
2023-04-12T17:19:15.680Z,100.00
2023-04-12T17:21:47.173Z,100.00
2023-04-12T17:24:18.704Z,100.00
2023-04-12T17:26:50.189Z,100.00
2023-04-12T17:29:21.979Z,100.00
2023-04-12T17:31:55.066Z,100.00
2023-04-12T17:34:26.662Z,100.00
2023-04-12T17:36:58.143Z,100.00
2023-04-12T17:39:29.615Z,100.00
2023-04-12T17:42:01.447Z,100.00
2023-04-12T17:44:32.932Z,100.00
2023-04-12T17:47:04.771Z,100.00
2023-04-12T17:49:36.253Z,100.00
2023-04-12T17:52:07.940Z,100.00
2023-04-12T17:54:39.417Z,100.00
2023-04-12T17:57:10.963Z,100.00
2023-04-12T17:59:42.433Z,100.00
2023-04-12T18:02:14.391Z,100.00
2023-04-12T18:04:46.094Z,100.00
2023-04-12T18:07:18.152Z,100.00
2023-04-12T18:09:49.619Z,100.00
2023-04-12T18:12:21.434Z,100.00
2023-04-12T18:14:53.114Z,100.00
2023-04-12T18:17:26.444Z,100.00
2023-04-12T18:19:59.982Z,100.00
2023-04-12T18:22:32.727Z,100.00
2023-04-12T18:25:04.209Z,100.00
2023-04-12T18:27:35.692Z,100.00
2023-04-12T18:30:07.589Z,100.00
2023-04-12T18:32:39.132Z,100.00
2023-04-12T18:35:11.035Z,100.00
2023-04-12T18:37:42.687Z,100.00
2023-04-12T18:40:14.412Z,100.00
2023-04-12T18:42:45.963Z,100.00
2023-04-12T18:45:17.792Z,100.00
2023-04-12T18:47:49.345Z,100.00
2023-04-12T18:50:21.211Z,100.00
2023-04-12T18:52:52.664Z,100.00
2023-04-12T18:55:24.569Z,100.00
2023-04-12T18:57:56.051Z,100.00
2023-04-12T19:00:27.945Z,100.00
2023-04-12T19:02:59.533Z,100.00
2023-04-12T19:05:31.108Z,100.00
2023-04-12T19:08:02.596Z,100.00
2023-04-12T19:10:34.071Z,100.00
2023-04-12T19:13:05.537Z,100.00
2023-04-12T19:15:37.243Z,100.00
2023-04-12T19:18:08.797Z,100.00
2023-04-12T19:20:40.388Z,100.00
2023-04-12T19:23:11.877Z,100.00
2023-04-12T19:25:43.664Z,100.00
2023-04-12T19:28:15.188Z,100.00
2023-04-12T19:30:46.982Z,100.00
2023-04-12T19:33:18.489Z,100.00
2023-04-12T19:35:50.296Z,100.00
2023-04-12T19:38:21.784Z,100.00
2023-04-12T19:40:53.449Z,100.00
2023-04-12T19:43:24.937Z,100.00
2023-04-12T19:45:56.663Z,100.00
2023-04-12T19:48:28.516Z,100.00
2023-04-12T19:51:00.002Z,100.00
2023-04-12T19:53:31.497Z,100.00
2023-04-12T19:56:03.002Z,100.00
2023-04-12T19:58:34.516Z,100.00
2023-04-12T20:01:05.996Z,100.00
2023-04-12T20:03:37.739Z,100.00
2023-04-12T20:06:09.224Z,100.00
2023-04-12T20:08:41.034Z,100.00
2023-04-12T20:11:12.492Z,100.00
2023-04-12T20:13:43.990Z,100.00
2023-04-12T20:16:15.449Z,100.00
2023-04-12T20:18:47.268Z,100.00
2023-04-12T20:21:18.737Z,100.00
2023-04-12T20:23:50.589Z,100.00
2023-04-12T20:26:22.061Z,100.00
2023-04-12T20:28:53.782Z,100.00
2023-04-12T20:31:25.345Z,100.00
2023-04-12T20:33:57.039Z,100.00
2023-04-12T20:36:28.523Z,100.00
2023-04-12T20:39:00.478Z,100.00
2023-04-12T20:41:32.057Z,100.00
2023-04-12T20:44:04.008Z,100.00
2023-04-12T20:46:36.748Z,100.00
2023-04-12T20:49:08.800Z,100.00
2023-04-12T20:51:40.276Z,100.00
2023-04-12T20:54:12.104Z,100.00
2023-04-12T20:56:43.575Z,100.00
2023-04-12T20:59:15.375Z,100.00
2023-04-12T21:01:46.980Z,100.00
2023-04-12T21:04:18.956Z,100.00
2023-04-12T21:06:50.474Z,100.00
2023-04-12T21:09:22.316Z,100.00
2023-04-12T21:11:53.774Z,100.00
2023-04-12T21:14:25.601Z,100.00
2023-04-12T21:16:57.064Z,100.00
2023-04-12T21:19:28.557Z,100.00
2023-04-12T21:22:00.005Z,100.00
2023-04-12T21:24:31.560Z,100.00
2023-04-12T21:27:03.025Z,100.00
2023-04-12T21:29:34.526Z,100.00
2023-04-12T21:32:06.131Z,100.00
2023-04-12T21:34:38.165Z,100.00
2023-04-12T21:37:09.646Z,100.00
2023-04-12T21:39:41.457Z,100.00
2023-04-12T21:42:13.000Z,100.00
2023-04-12T21:44:44.892Z,100.00
2023-04-12T21:47:16.366Z,100.00
2023-04-12T21:49:48.095Z,100.00
2023-04-12T21:52:19.557Z,100.00
2023-04-12T21:54:51.430Z,100.00
2023-04-12T21:57:22.917Z,100.00
2023-04-12T21:59:54.641Z,100.00
2023-04-12T22:02:26.172Z,100.00
2023-04-12T22:04:58.223Z,100.00
2023-04-12T22:07:29.799Z,100.00
2023-04-12T22:10:01.594Z,100.00
2023-04-12T22:12:33.048Z,100.00
2023-04-12T22:15:04.884Z,100.00
2023-04-12T22:17:36.362Z,100.00
2023-04-12T22:20:07.902Z,100.00
2023-04-12T22:22:39.398Z,100.00
2023-04-12T22:25:10.896Z,100.00
2023-04-12T22:27:42.351Z,100.00
2023-04-12T22:30:14.207Z,100.00
2023-04-12T22:32:45.733Z,100.00
2023-04-12T22:35:17.604Z,100.00
2023-04-12T22:37:49.074Z,100.00
2023-04-12T22:40:20.860Z,100.00
2023-04-12T22:42:52.363Z,100.00
2023-04-12T22:45:23.846Z,100.00
2023-04-12T22:47:55.355Z,100.00
2023-04-12T22:50:26.877Z,100.00
2023-04-12T22:52:58.349Z,100.00
2023-04-12T22:55:29.902Z,100.00
2023-04-12T22:58:01.345Z,100.00
2023-04-12T23:00:32.821Z,100.00
2023-04-12T23:03:04.517Z,100.00
2023-04-12T23:05:36.116Z,100.00
2023-04-12T23:08:07.635Z,100.00
2023-04-12T23:10:39.593Z,100.00
2023-04-12T23:13:11.070Z,100.00
2023-04-12T23:15:42.655Z,100.00
2023-04-12T23:18:14.147Z,100.00
2023-04-12T23:20:45.964Z,100.00
2023-04-12T23:23:17.413Z,100.00
2023-04-12T23:25:49.221Z,100.00
2023-04-12T23:28:20.690Z,100.00
2023-04-12T23:30:52.461Z,100.00
2023-04-12T23:33:23.938Z,100.00
2023-04-12T23:35:55.765Z,100.00
2023-04-12T23:38:27.270Z,100.00
2023-04-12T23:40:59.179Z,100.00
2023-04-12T23:43:30.665Z,100.00
2023-04-12T23:46:02.420Z,100.00
2023-04-12T23:48:33.910Z,100.00
2023-04-12T23:51:05.856Z,100.00
2023-04-12T23:53:37.310Z,100.00
2023-04-12T23:56:08.805Z,100.00
2023-04-12T23:58:40.297Z,100.00
